Terminal Aerodrome Forecast
Issued by NWS

Home | Current Version | Previous Version | Text Only | Print | Product List | Glossary On
Versions: 1 2 3 4 5 6 7 8 9 10 11 12 13 14 15 16 17 18 19 20 21 22 23 24 25 26 27 28 29 30
000
FTAK31 PANC 012338
TAFADL
TAF
PADL 012338Z 0200/0224 18009KT P6SM VCSH SCT025 BKN080
      TEMPO 0200/0202 -SHRA BKN025
     FM020600 VRB03KT P6SM SCT015 BKN150
     FM022100 16008KT P6SM SCT050 BKN150=

USA.gov is the U.S. government's official web portal to all federal, state and local government web resources and services.